sensor_id;sensor_type;location;lat;lon;timestamp;P1;durP1;ratioP1;P2;durP2;ratioP2
41661;SDS011;27351;45.992;12.666;2023-03-21T00:11:31;41.13;;;27.60;;
41661;SDS011;27351;45.992;12.666;2023-03-21T00:13:57;37.35;;;25.63;;
41661;SDS011;27351;45.992;12.666;2023-03-21T00:16:26;39.28;;;26.92;;
41661;SDS011;27351;45.992;12.666;2023-03-21T00:18:54;35.75;;;25.02;;
41661;SDS011;27351;45.992;12.666;2023-03-21T00:21:22;33.58;;;23.80;;
41661;SDS011;27351;45.992;12.666;2023-03-21T00:23:53;35.67;;;24.25;;
41661;SDS011;27351;45.992;12.666;2023-03-21T00:26:18;34.17;;;23.77;;
41661;SDS011;27351;45.992;12.666;2023-03-21T00:28:44;39.17;;;26.00;;
41661;SDS011;27351;45.992;12.666;2023-03-21T00:31:11;38.95;;;25.30;;
41661;SDS011;27351;45.992;12.666;2023-03-21T00:33:36;36.50;;;24.90;;
41661;SDS011;27351;45.992;12.666;2023-03-21T00:36:03;36.47;;;24.70;;
41661;SDS011;27351;45.992;12.666;2023-03-21T00:38:32;37.65;;;24.85;;
41661;SDS011;27351;45.992;12.666;2023-03-21T00:40:58;38.75;;;26.83;;
41661;SDS011;27351;45.992;12.666;2023-03-21T00:43:24;35.25;;;22.75;;
41661;SDS011;27351;45.992;12.666;2023-03-21T00:45:54;34.28;;;23.20;;
41661;SDS011;27351;45.992;12.666;2023-03-21T00:48:21;34.15;;;22.98;;
41661;SDS011;27351;45.992;12.666;2023-03-21T00:50:46;31.25;;;22.20;;
41661;SDS011;27351;45.992;12.666;2023-03-21T00:53:14;32.88;;;23.75;;
41661;SDS011;27351;45.992;12.666;2023-03-21T00:55:40;33.20;;;22.73;;
41661;SDS011;27351;45.992;12.666;2023-03-21T00:58:06;31.67;;;23.38;;
41661;SDS011;27351;45.992;12.666;2023-03-21T01:00:32;30.15;;;20.55;;
41661;SDS011;27351;45.992;12.666;2023-03-21T01:02:58;35.07;;;22.83;;
41661;SDS011;27351;45.992;12.666;2023-03-21T01:05:30;32.10;;;22.00;;
41661;SDS011;27351;45.992;12.666;2023-03-21T01:08:15;30.38;;;21.13;;
41661;SDS011;27351;45.992;12.666;2023-03-21T01:10:43;28.98;;;19.90;;
41661;SDS011;27351;45.992;12.666;2023-03-21T01:13:09;31.13;;;21.92;;
41661;SDS011;27351;45.992;12.666;2023-03-21T01:15:35;33.20;;;23.83;;
41661;SDS011;27351;45.992;12.666;2023-03-21T01:18:01;30.75;;;21.33;;
41661;SDS011;27351;45.992;12.666;2023-03-21T01:20:27;33.70;;;22.73;;
41661;SDS011;27351;45.992;12.666;2023-03-21T01:22:53;37.30;;;25.40;;
41661;SDS011;27351;45.992;12.666;2023-03-21T01:25:18;30.90;;;20.67;;
41661;SDS011;27351;45.992;12.666;2023-03-21T01:27:44;31.27;;;20.90;;
41661;SDS011;27351;45.992;12.666;2023-03-21T01:30:10;31.73;;;21.92;;
41661;SDS011;27351;45.992;12.666;2023-03-21T01:32:36;34.53;;;23.40;;
41661;SDS011;27351;45.992;12.666;2023-03-21T01:35:02;33.15;;;22.33;;
41661;SDS011;27351;45.992;12.666;2023-03-21T01:37:28;32.50;;;21.80;;
41661;SDS011;27351;45.992;12.666;2023-03-21T01:39:53;36.63;;;23.07;;
41661;SDS011;27351;45.992;12.666;2023-03-21T01:42:20;34.63;;;22.38;;
41661;SDS011;27351;45.992;12.666;2023-03-21T01:44:59;31.35;;;21.30;;
41661;SDS011;27351;45.992;12.666;2023-03-21T01:47:34;33.20;;;22.30;;
41661;SDS011;27351;45.992;12.666;2023-03-21T01:50:05;28.08;;;18.58;;
41661;SDS011;27351;45.992;12.666;2023-03-21T01:52:42;25.85;;;18.13;;
41661;SDS011;27351;45.992;12.666;2023-03-21T01:55:14;30.38;;;20.63;;
41661;SDS011;27351;45.992;12.666;2023-03-21T01:57:59;30.63;;;21.63;;
41661;SDS011;27351;45.992;12.666;2023-03-21T02:00:26;29.38;;;20.65;;
41661;SDS011;27351;45.992;12.666;2023-03-21T02:03:05;30.20;;;19.52;;
41661;SDS011;27351;45.992;12.666;2023-03-21T02:06:01;28.70;;;19.95;;
41661;SDS011;27351;45.992;12.666;2023-03-21T02:08:35;27.63;;;18.67;;
41661;SDS011;27351;45.992;12.666;2023-03-21T02:11:06;32.57;;;21.93;;
41661;SDS011;27351;45.992;12.666;2023-03-21T02:13:39;29.35;;;20.85;;
41661;SDS011;27351;45.992;12.666;2023-03-21T02:27:06;23.60;;;15.95;;
41661;SDS011;27351;45.992;12.666;2023-03-21T02:37:39;27.30;;;18.70;;
41661;SDS011;27351;45.992;12.666;2023-03-21T02:47:47;24.92;;;16.85;;
41661;SDS011;27351;45.992;12.666;2023-03-21T02:50:20;25.00;;;17.48;;
41661;SDS011;27351;45.992;12.666;2023-03-21T02:52:49;24.75;;;16.98;;
41661;SDS011;27351;45.992;12.666;2023-03-21T02:55:19;26.95;;;17.05;;
41661;SDS011;27351;45.992;12.666;2023-03-21T02:58:05;24.85;;;16.85;;
41661;SDS011;27351;45.992;12.666;2023-03-21T03:00:32;24.20;;;16.75;;
41661;SDS011;27351;45.992;12.666;2023-03-21T03:03:00;27.02;;;17.58;;
41661;SDS011;27351;45.992;12.666;2023-03-21T03:05:29;26.57;;;17.80;;
41661;SDS011;27351;45.992;12.666;2023-03-21T03:18:08;25.27;;;17.50;;
41661;SDS011;27351;45.992;12.666;2023-03-21T03:20:48;26.65;;;18.45;;
41661;SDS011;27351;45.992;12.666;2023-03-21T03:25:43;23.33;;;17.03;;
41661;SDS011;27351;45.992;12.666;2023-03-21T03:28:14;27.48;;;17.67;;
41661;SDS011;27351;45.992;12.666;2023-03-21T03:30:40;25.90;;;17.67;;
41661;SDS011;27351;45.992;12.666;2023-03-21T03:33:08;27.52;;;19.27;;
41661;SDS011;27351;45.992;12.666;2023-03-21T03:35:34;27.75;;;17.77;;
41661;SDS011;27351;45.992;12.666;2023-03-21T03:38:01;26.17;;;16.73;;
41661;SDS011;27351;45.992;12.666;2023-03-21T03:40:33;27.73;;;18.30;;
41661;SDS011;27351;45.992;12.666;2023-03-21T03:43:10;29.42;;;18.85;;
41661;SDS011;27351;45.992;12.666;2023-03-21T03:45:48;26.47;;;17.73;;
41661;SDS011;27351;45.992;12.666;2023-03-21T03:53:22;34.50;;;21.08;;
41661;SDS011;27351;45.992;12.666;2023-03-21T03:55:53;29.58;;;19.02;;
41661;SDS011;27351;45.992;12.666;2023-03-21T03:58:20;29.55;;;19.23;;
41661;SDS011;27351;45.992;12.666;2023-03-21T04:00:46;31.73;;;21.17;;
41661;SDS011;27351;45.992;12.666;2023-03-21T04:03:12;33.80;;;21.23;;
41661;SDS011;27351;45.992;12.666;2023-03-21T04:05:37;33.97;;;21.70;;
41661;SDS011;27351;45.992;12.666;2023-03-21T04:08:03;32.30;;;20.92;;
41661;SDS011;27351;45.992;12.666;2023-03-21T04:10:36;31.27;;;21.25;;
41661;SDS011;27351;45.992;12.666;2023-03-21T04:13:01;30.77;;;20.73;;
41661;SDS011;27351;45.992;12.666;2023-03-21T04:15:36;29.02;;;19.20;;
41661;SDS011;27351;45.992;12.666;2023-03-21T04:18:11;29.77;;;19.23;;
41661;SDS011;27351;45.992;12.666;2023-03-21T04:20:37;26.40;;;16.73;;
41661;SDS011;27351;45.992;12.666;2023-03-21T04:23:05;25.45;;;17.35;;
41661;SDS011;27351;45.992;12.666;2023-03-21T04:25:34;26.02;;;15.70;;
41661;SDS011;27351;45.992;12.666;2023-03-21T04:28:02;23.45;;;16.63;;
41661;SDS011;27351;45.992;12.666;2023-03-21T04:30:48;25.35;;;16.60;;
41661;SDS011;27351;45.992;12.666;2023-03-21T04:33:17;22.92;;;15.93;;
41661;SDS011;27351;45.992;12.666;2023-03-21T04:35:54;25.42;;;16.23;;
41661;SDS011;27351;45.992;12.666;2023-03-21T04:38:22;22.47;;;15.23;;
41661;SDS011;27351;45.992;12.666;2023-03-21T04:40:48;23.45;;;16.95;;
41661;SDS011;27351;45.992;12.666;2023-03-21T04:43:13;24.42;;;17.13;;
41661;SDS011;27351;45.992;12.666;2023-03-21T04:45:39;26.33;;;16.48;;
41661;SDS011;27351;45.992;12.666;2023-03-21T04:48:05;24.40;;;16.73;;
41661;SDS011;27351;45.992;12.666;2023-03-21T04:50:31;25.02;;;16.65;;
41661;SDS011;27351;45.992;12.666;2023-03-21T04:52:58;25.13;;;16.27;;
41661;SDS011;27351;45.992;12.666;2023-03-21T04:55:24;23.10;;;16.20;;
41661;SDS011;27351;45.992;12.666;2023-03-21T04:57:53;30.33;;;18.52;;
41661;SDS011;27351;45.992;12.666;2023-03-21T05:00:20;23.53;;;15.47;;
41661;SDS011;27351;45.992;12.666;2023-03-21T05:02:47;25.75;;;17.15;;
41661;SDS011;27351;45.992;12.666;2023-03-21T05:05:12;26.03;;;18.10;;
41661;SDS011;27351;45.992;12.666;2023-03-21T05:07:38;26.48;;;17.48;;
41661;SDS011;27351;45.992;12.666;2023-03-21T05:10:05;26.50;;;17.20;;
41661;SDS011;27351;45.992;12.666;2023-03-21T05:12:31;29.02;;;18.38;;
41661;SDS011;27351;45.992;12.666;2023-03-21T05:14:56;25.50;;;17.00;;
41661;SDS011;27351;45.992;12.666;2023-03-21T05:17:23;23.47;;;15.80;;
41661;SDS011;27351;45.992;12.666;2023-03-21T05:19:50;27.88;;;17.20;;
41661;SDS011;27351;45.992;12.666;2023-03-21T05:22:17;25.70;;;16.75;;
41661;SDS011;27351;45.992;12.666;2023-03-21T05:24:44;25.35;;;15.57;;
41661;SDS011;27351;45.992;12.666;2023-03-21T05:27:28;27.15;;;17.98;;
41661;SDS011;27351;45.992;12.666;2023-03-21T05:30:06;31.00;;;17.45;;
41661;SDS011;27351;45.992;12.666;2023-03-21T05:32:33;27.58;;;17.83;;
41661;SDS011;27351;45.992;12.666;2023-03-21T05:34:59;27.17;;;17.65;;
41661;SDS011;27351;45.992;12.666;2023-03-21T05:37:25;28.48;;;18.35;;
41661;SDS011;27351;45.992;12.666;2023-03-21T05:39:51;26.70;;;18.13;;
41661;SDS011;27351;45.992;12.666;2023-03-21T05:42:25;30.40;;;19.80;;
41661;SDS011;27351;45.992;12.666;2023-03-21T05:44:51;30.08;;;19.15;;
41661;SDS011;27351;45.992;12.666;2023-03-21T05:47:21;29.83;;;20.10;;
41661;SDS011;27351;45.992;12.666;2023-03-21T05:49:49;27.35;;;19.02;;
41661;SDS011;27351;45.992;12.666;2023-03-21T05:52:15;28.75;;;18.58;;
41661;SDS011;27351;45.992;12.666;2023-03-21T05:54:43;29.67;;;19.20;;
41661;SDS011;27351;45.992;12.666;2023-03-21T05:57:08;27.33;;;19.10;;
41661;SDS011;27351;45.992;12.666;2023-03-21T05:59:51;30.17;;;20.13;;
41661;SDS011;27351;45.992;12.666;2023-03-21T06:02:18;33.30;;;22.00;;
41661;SDS011;27351;45.992;12.666;2023-03-21T06:04:45;33.40;;;21.80;;
41661;SDS011;27351;45.992;12.666;2023-03-21T06:07:11;34.30;;;21.52;;
41661;SDS011;27351;45.992;12.666;2023-03-21T06:09:38;34.85;;;22.77;;
41661;SDS011;27351;45.992;12.666;2023-03-21T06:12:04;34.03;;;21.85;;
41661;SDS011;27351;45.992;12.666;2023-03-21T06:14:37;34.35;;;22.13;;
41661;SDS011;27351;45.992;12.666;2023-03-21T06:17:23;31.67;;;20.98;;
41661;SDS011;27351;45.992;12.666;2023-03-21T06:19:54;34.70;;;22.38;;
41661;SDS011;27351;45.992;12.666;2023-03-21T06:22:27;33.72;;;21.67;;
41661;SDS011;27351;45.992;12.666;2023-03-21T06:24:53;38.05;;;23.95;;
41661;SDS011;27351;45.992;12.666;2023-03-21T06:27:19;36.25;;;23.92;;
41661;SDS011;27351;45.992;12.666;2023-03-21T06:29:49;38.73;;;24.77;;
41661;SDS011;27351;45.992;12.666;2023-03-21T06:32:15;54.42;;;37.65;;
41661;SDS011;27351;45.992;12.666;2023-03-21T06:34:42;73.82;;;59.45;;
41661;SDS011;27351;45.992;12.666;2023-03-21T06:37:11;70.97;;;62.08;;
41661;SDS011;27351;45.992;12.666;2023-03-21T06:39:37;63.22;;;56.38;;
41661;SDS011;27351;45.992;12.666;2023-03-21T06:42:02;57.45;;;47.40;;
41661;SDS011;27351;45.992;12.666;2023-03-21T06:44:28;45.35;;;33.03;;
41661;SDS011;27351;45.992;12.666;2023-03-21T06:47:00;40.07;;;29.50;;
41661;SDS011;27351;45.992;12.666;2023-03-21T06:49:26;38.50;;;26.90;;
41661;SDS011;27351;45.992;12.666;2023-03-21T06:51:53;37.15;;;25.77;;
41661;SDS011;27351;45.992;12.666;2023-03-21T06:54:19;36.17;;;24.77;;
41661;SDS011;27351;45.992;12.666;2023-03-21T06:57:11;37.50;;;24.80;;
41661;SDS011;27351;45.992;12.666;2023-03-21T06:59:38;37.45;;;24.58;;
41661;SDS011;27351;45.992;12.666;2023-03-21T07:02:13;36.17;;;23.15;;
41661;SDS011;27351;45.992;12.666;2023-03-21T07:05:05;35.67;;;23.20;;
41661;SDS011;27351;45.992;12.666;2023-03-21T07:07:31;33.35;;;22.42;;
41661;SDS011;27351;45.992;12.666;2023-03-21T07:09:56;32.47;;;22.17;;
41661;SDS011;27351;45.992;12.666;2023-03-21T07:12:23;31.05;;;21.23;;
41661;SDS011;27351;45.992;12.666;2023-03-21T07:15:12;34.20;;;22.55;;
41661;SDS011;27351;45.992;12.666;2023-03-21T07:17:40;31.23;;;21.75;;
41661;SDS011;27351;45.992;12.666;2023-03-21T07:20:06;31.13;;;22.17;;
41661;SDS011;27351;45.992;12.666;2023-03-21T07:22:33;32.25;;;21.42;;
41661;SDS011;27351;45.992;12.666;2023-03-21T07:24:59;32.20;;;21.27;;
41661;SDS011;27351;45.992;12.666;2023-03-21T07:27:24;31.67;;;21.77;;
41661;SDS011;27351;45.992;12.666;2023-03-21T07:29:50;30.73;;;21.97;;
41661;SDS011;27351;45.992;12.666;2023-03-21T07:32:16;33.57;;;22.20;;
41661;SDS011;27351;45.992;12.666;2023-03-21T07:34:41;31.47;;;21.57;;
41661;SDS011;27351;45.992;12.666;2023-03-21T07:37:07;32.83;;;21.17;;
41661;SDS011;27351;45.992;12.666;2023-03-21T07:39:33;32.07;;;21.40;;
41661;SDS011;27351;45.992;12.666;2023-03-21T07:41:59;31.60;;;20.83;;
41661;SDS011;27351;45.992;12.666;2023-03-21T07:44:34;32.13;;;20.25;;
41661;SDS011;27351;45.992;12.666;2023-03-21T07:47:01;32.85;;;21.52;;
41661;SDS011;27351;45.992;12.666;2023-03-21T07:49:27;32.07;;;21.23;;
41661;SDS011;27351;45.992;12.666;2023-03-21T07:51:52;33.95;;;21.08;;
41661;SDS011;27351;45.992;12.666;2023-03-21T07:54:18;29.23;;;20.20;;
41661;SDS011;27351;45.992;12.666;2023-03-21T07:56:46;32.58;;;21.42;;
41661;SDS011;27351;45.992;12.666;2023-03-21T07:59:12;33.00;;;22.00;;
41661;SDS011;27351;45.992;12.666;2023-03-21T08:01:37;30.97;;;22.00;;
41661;SDS011;27351;45.992;12.666;2023-03-21T08:04:02;31.25;;;21.27;;
41661;SDS011;27351;45.992;12.666;2023-03-21T08:06:28;32.77;;;20.53;;
41661;SDS011;27351;45.992;12.666;2023-03-21T08:08:56;32.40;;;21.75;;
41661;SDS011;27351;45.992;12.666;2023-03-21T08:11:22;31.38;;;22.13;;
41661;SDS011;27351;45.992;12.666;2023-03-21T08:13:49;32.33;;;22.58;;
41661;SDS011;27351;45.992;12.666;2023-03-21T08:16:15;29.95;;;21.52;;
41661;SDS011;27351;45.992;12.666;2023-03-21T08:18:41;32.83;;;21.98;;
41661;SDS011;27351;45.992;12.666;2023-03-21T08:21:07;31.83;;;21.98;;
41661;SDS011;27351;45.992;12.666;2023-03-21T08:23:32;33.03;;;21.27;;
41661;SDS011;27351;45.992;12.666;2023-03-21T08:25:58;32.08;;;22.27;;
41661;SDS011;27351;45.992;12.666;2023-03-21T08:28:24;30.57;;;20.70;;
41661;SDS011;27351;45.992;12.666;2023-03-21T08:30:49;32.72;;;22.25;;
41661;SDS011;27351;45.992;12.666;2023-03-21T08:33:15;29.83;;;20.93;;
41661;SDS011;27351;45.992;12.666;2023-03-21T08:35:43;30.88;;;21.75;;
41661;SDS011;27351;45.992;12.666;2023-03-21T08:38:08;30.70;;;20.52;;
41661;SDS011;27351;45.992;12.666;2023-03-21T08:40:35;27.47;;;19.73;;
41661;SDS011;27351;45.992;12.666;2023-03-21T08:43:01;30.95;;;21.23;;
41661;SDS011;27351;45.992;12.666;2023-03-21T08:45:27;31.67;;;20.65;;
41661;SDS011;27351;45.992;12.666;2023-03-21T08:47:52;28.13;;;19.03;;
41661;SDS011;27351;45.992;12.666;2023-03-21T08:50:19;26.48;;;17.70;;
41661;SDS011;27351;45.992;12.666;2023-03-21T08:52:45;27.93;;;18.07;;
41661;SDS011;27351;45.992;12.666;2023-03-21T08:55:11;24.07;;;16.40;;
41661;SDS011;27351;45.992;12.666;2023-03-21T08:57:36;26.30;;;17.37;;
41661;SDS011;27351;45.992;12.666;2023-03-21T09:00:05;25.10;;;17.30;;
41661;SDS011;27351;45.992;12.666;2023-03-21T09:02:36;25.40;;;17.45;;
41661;SDS011;27351;45.992;12.666;2023-03-21T09:05:02;25.10;;;18.33;;
41661;SDS011;27351;45.992;12.666;2023-03-21T09:07:30;28.20;;;18.63;;
41661;SDS011;27351;45.992;12.666;2023-03-21T09:09:58;24.40;;;17.25;;
41661;SDS011;27351;45.992;12.666;2023-03-21T09:12:24;23.13;;;16.25;;
41661;SDS011;27351;45.992;12.666;2023-03-21T09:14:50;24.35;;;16.52;;
41661;SDS011;27351;45.992;12.666;2023-03-21T09:17:17;25.58;;;17.25;;
41661;SDS011;27351;45.992;12.666;2023-03-21T09:19:43;23.60;;;16.80;;
41661;SDS011;27351;45.992;12.666;2023-03-21T09:22:10;26.63;;;17.77;;
41661;SDS011;27351;45.992;12.666;2023-03-21T09:24:41;22.50;;;15.20;;
41661;SDS011;27351;45.992;12.666;2023-03-21T09:27:07;23.57;;;17.27;;
41661;SDS011;27351;45.992;12.666;2023-03-21T09:29:33;29.43;;;17.67;;
41661;SDS011;27351;45.992;12.666;2023-03-21T09:31:59;23.80;;;17.15;;
41661;SDS011;27351;45.992;12.666;2023-03-21T09:34:26;23.85;;;16.30;;
41661;SDS011;27351;45.992;12.666;2023-03-21T09:36:52;25.98;;;17.30;;
41661;SDS011;27351;45.992;12.666;2023-03-21T09:39:21;28.10;;;18.52;;
41661;SDS011;27351;45.992;12.666;2023-03-21T09:47:04;24.80;;;17.58;;
41661;SDS011;27351;45.992;12.666;2023-03-21T09:49:37;25.27;;;17.05;;
41661;SDS011;27351;45.992;12.666;2023-03-21T09:52:08;22.83;;;15.43;;
41661;SDS011;27351;45.992;12.666;2023-03-21T09:54:37;24.48;;;17.40;;
41661;SDS011;27351;45.992;12.666;2023-03-21T09:57:18;24.02;;;16.13;;
41661;SDS011;27351;45.992;12.666;2023-03-21T09:59:48;22.00;;;15.98;;
41661;SDS011;27351;45.992;12.666;2023-03-21T10:04:47;23.67;;;16.55;;
41661;SDS011;27351;45.992;12.666;2023-03-21T10:07:12;23.73;;;16.75;;
41661;SDS011;27351;45.992;12.666;2023-03-21T10:09:42;21.35;;;15.80;;
41661;SDS011;27351;45.992;12.666;2023-03-21T10:12:29;21.30;;;14.77;;
41661;SDS011;27351;45.992;12.666;2023-03-21T10:14:56;23.97;;;15.80;;
41661;SDS011;27351;45.992;12.666;2023-03-21T10:17:36;21.37;;;14.53;;
41661;SDS011;27351;45.992;12.666;2023-03-21T10:22:43;19.48;;;13.70;;
41661;SDS011;27351;45.992;12.666;2023-03-21T10:25:14;23.35;;;16.05;;
41661;SDS011;27351;45.992;12.666;2023-03-21T10:27:41;23.00;;;16.05;;
41661;SDS011;27351;45.992;12.666;2023-03-21T10:30:07;22.02;;;16.25;;
41661;SDS011;27351;45.992;12.666;2023-03-21T10:32:35;24.67;;;14.82;;
41661;SDS011;27351;45.992;12.666;2023-03-21T10:35:00;21.75;;;15.10;;
41661;SDS011;27351;45.992;12.666;2023-03-21T10:37:29;19.93;;;15.10;;
41661;SDS011;27351;45.992;12.666;2023-03-21T10:39:56;24.83;;;16.45;;
41661;SDS011;27351;45.992;12.666;2023-03-21T10:42:23;21.10;;;15.02;;
41661;SDS011;27351;45.992;12.666;2023-03-21T10:44:49;20.30;;;13.60;;
41661;SDS011;27351;45.992;12.666;2023-03-21T10:47:23;19.35;;;13.50;;
41661;SDS011;27351;45.992;12.666;2023-03-21T10:49:49;19.42;;;12.95;;
41661;SDS011;27351;45.992;12.666;2023-03-21T10:52:17;17.63;;;12.98;;
41661;SDS011;27351;45.992;12.666;2023-03-21T10:54:42;21.77;;;13.60;;
41661;SDS011;27351;45.992;12.666;2023-03-21T10:59:40;21.98;;;14.07;;
41661;SDS011;27351;45.992;12.666;2023-03-21T11:02:13;17.80;;;11.93;;
41661;SDS011;27351;45.992;12.666;2023-03-21T11:04:41;11.40;;;7.85;;
41661;SDS011;27351;45.992;12.666;2023-03-21T11:07:08;9.73;;;6.30;;
41661;SDS011;27351;45.992;12.666;2023-03-21T11:09:58;11.30;;;6.85;;
41661;SDS011;27351;45.992;12.666;2023-03-21T11:12:36;11.68;;;7.35;;
41661;SDS011;27351;45.992;12.666;2023-03-21T11:17:46;13.20;;;8.35;;
41661;SDS011;27351;45.992;12.666;2023-03-21T11:20:15;15.38;;;9.93;;
41661;SDS011;27351;45.992;12.666;2023-03-21T11:22:43;8.73;;;4.95;;
41661;SDS011;27351;45.992;12.666;2023-03-21T11:25:17;9.77;;;5.97;;
41661;SDS011;27351;45.992;12.666;2023-03-21T11:27:48;9.63;;;6.45;;
41661;SDS011;27351;45.992;12.666;2023-03-21T11:33:22;11.20;;;6.60;;
41661;SDS011;27351;45.992;12.666;2023-03-21T11:35:57;11.63;;;7.22;;
41661;SDS011;27351;45.992;12.666;2023-03-21T11:38:25;11.90;;;6.33;;
41661;SDS011;27351;45.992;12.666;2023-03-21T11:40:56;9.87;;;6.20;;
41661;SDS011;27351;45.992;12.666;2023-03-21T11:43:26;9.68;;;5.97;;
41661;SDS011;27351;45.992;12.666;2023-03-21T11:45:56;9.85;;;5.22;;
41661;SDS011;27351;45.992;12.666;2023-03-21T11:48:22;8.88;;;4.60;;
41661;SDS011;27351;45.992;12.666;2023-03-21T11:50:48;7.17;;;4.17;;
41661;SDS011;27351;45.992;12.666;2023-03-21T12:00:41;9.23;;;5.13;;
41661;SDS011;27351;45.992;12.666;2023-03-21T12:05:45;10.20;;;6.07;;
41661;SDS011;27351;45.992;12.666;2023-03-21T12:13:25;8.47;;;4.60;;
41661;SDS011;27351;45.992;12.666;2023-03-21T12:24:17;7.68;;;4.40;;
41661;SDS011;27351;45.992;12.666;2023-03-21T12:27:03;9.33;;;5.33;;
41661;SDS011;27351;45.992;12.666;2023-03-21T12:34:57;7.72;;;3.90;;
41661;SDS011;27351;45.992;12.666;2023-03-21T12:39:53;8.13;;;3.97;;
41661;SDS011;27351;45.992;12.666;2023-03-21T12:42:40;6.88;;;3.50;;
41661;SDS011;27351;45.992;12.666;2023-03-21T12:45:28;7.40;;;3.85;;
41661;SDS011;27351;45.992;12.666;2023-03-21T12:48:02;9.23;;;4.35;;
41661;SDS011;27351;45.992;12.666;2023-03-21T12:50:30;8.18;;;4.25;;
41661;SDS011;27351;45.992;12.666;2023-03-21T12:53:05;6.30;;;3.55;;
41661;SDS011;27351;45.992;12.666;2023-03-21T12:55:33;5.90;;;3.10;;
41661;SDS011;27351;45.992;12.666;2023-03-21T13:00:25;7.32;;;3.13;;
41661;SDS011;27351;45.992;12.666;2023-03-21T13:03:07;6.10;;;3.00;;
41661;SDS011;27351;45.992;12.666;2023-03-21T13:05:49;4.35;;;2.60;;
41661;SDS011;27351;45.992;12.666;2023-03-21T13:08:17;4.10;;;2.40;;
41661;SDS011;27351;45.992;12.666;2023-03-21T13:10:45;6.00;;;2.70;;
41661;SDS011;27351;45.992;12.666;2023-03-21T13:21:15;6.88;;;2.58;;
41661;SDS011;27351;45.992;12.666;2023-03-21T13:23:53;6.30;;;3.00;;
41661;SDS011;27351;45.992;12.666;2023-03-21T13:26:19;5.97;;;3.40;;
41661;SDS011;27351;45.992;12.666;2023-03-21T13:28:45;6.72;;;2.85;;
41661;SDS011;27351;45.992;12.666;2023-03-21T13:33:40;6.15;;;2.70;;
41661;SDS011;27351;45.992;12.666;2023-03-21T13:36:13;5.60;;;2.30;;
41661;SDS011;27351;45.992;12.666;2023-03-21T13:38:39;5.10;;;2.70;;
41661;SDS011;27351;45.992;12.666;2023-03-21T13:41:11;4.18;;;2.10;;
41661;SDS011;27351;45.992;12.666;2023-03-21T13:59:08;7.15;;;3.03;;
41661;SDS011;27351;45.992;12.666;2023-03-21T14:01:35;5.47;;;3.10;;
41661;SDS011;27351;45.992;12.666;2023-03-21T14:06:33;6.50;;;3.60;;
41661;SDS011;27351;45.992;12.666;2023-03-21T14:09:00;6.63;;;3.90;;
41661;SDS011;27351;45.992;12.666;2023-03-21T14:11:26;7.03;;;4.05;;
41661;SDS011;27351;45.992;12.666;2023-03-21T14:13:53;7.10;;;4.32;;
41661;SDS011;27351;45.992;12.666;2023-03-21T14:16:18;8.05;;;4.28;;
41661;SDS011;27351;45.992;12.666;2023-03-21T14:18:47;8.65;;;4.60;;
41661;SDS011;27351;45.992;12.666;2023-03-21T14:21:14;9.35;;;4.53;;
41661;SDS011;27351;45.992;12.666;2023-03-21T14:23:40;7.10;;;4.38;;
41661;SDS011;27351;45.992;12.666;2023-03-21T14:26:07;8.43;;;4.27;;
41661;SDS011;27351;45.992;12.666;2023-03-21T14:28:34;8.77;;;3.65;;
41661;SDS011;27351;45.992;12.666;2023-03-21T14:31:01;7.30;;;3.92;;
41661;SDS011;27351;45.992;12.666;2023-03-21T14:33:31;7.70;;;4.40;;
41661;SDS011;27351;45.992;12.666;2023-03-21T14:35:58;7.53;;;4.00;;
41661;SDS011;27351;45.992;12.666;2023-03-21T14:38:25;9.52;;;4.90;;
41661;SDS011;27351;45.992;12.666;2023-03-21T14:40:52;7.32;;;4.35;;
41661;SDS011;27351;45.992;12.666;2023-03-21T14:43:19;7.85;;;4.43;;
41661;SDS011;27351;45.992;12.666;2023-03-21T14:45:49;8.60;;;4.90;;
41661;SDS011;27351;45.992;12.666;2023-03-21T14:48:17;8.50;;;4.00;;
41661;SDS011;27351;45.992;12.666;2023-03-21T14:50:47;7.40;;;3.83;;
41661;SDS011;27351;45.992;12.666;2023-03-21T14:55:58;7.50;;;3.80;;
41661;SDS011;27351;45.992;12.666;2023-03-21T14:58:24;7.85;;;3.97;;
41661;SDS011;27351;45.992;12.666;2023-03-21T15:00:51;7.82;;;3.97;;
41661;SDS011;27351;45.992;12.666;2023-03-21T15:03:17;8.07;;;4.00;;
41661;SDS011;27351;45.992;12.666;2023-03-21T15:05:44;7.25;;;3.70;;
41661;SDS011;27351;45.992;12.666;2023-03-21T15:10:36;7.33;;;3.87;;
41661;SDS011;27351;45.992;12.666;2023-03-21T15:13:15;8.95;;;3.90;;
41661;SDS011;27351;45.992;12.666;2023-03-21T15:15:42;6.78;;;3.90;;
41661;SDS011;27351;45.992;12.666;2023-03-21T15:18:07;7.03;;;4.00;;
41661;SDS011;27351;45.992;12.666;2023-03-21T15:20:35;8.55;;;3.97;;
41661;SDS011;27351;45.992;12.666;2023-03-21T15:23:06;8.73;;;3.88;;
41661;SDS011;27351;45.992;12.666;2023-03-21T15:25:33;7.95;;;4.90;;
41661;SDS011;27351;45.992;12.666;2023-03-21T15:27:59;8.88;;;5.05;;
41661;SDS011;27351;45.992;12.666;2023-03-21T15:30:26;8.73;;;5.28;;
41661;SDS011;27351;45.992;12.666;2023-03-21T15:32:53;10.13;;;6.20;;
41661;SDS011;27351;45.992;12.666;2023-03-21T15:35:20;9.20;;;5.45;;
41661;SDS011;27351;45.992;12.666;2023-03-21T15:37:56;9.03;;;5.87;;
41661;SDS011;27351;45.992;12.666;2023-03-21T15:40:26;11.13;;;6.25;;
41661;SDS011;27351;45.992;12.666;2023-03-21T15:43:34;10.30;;;6.30;;
41661;SDS011;27351;45.992;12.666;2023-03-21T15:45:47;11.10;;;6.60;;
41661;SDS011;27351;45.992;12.666;2023-03-21T15:48:14;11.02;;;7.10;;
41661;SDS011;27351;45.992;12.666;2023-03-21T15:51:02;11.83;;;6.97;;
41661;SDS011;27351;45.992;12.666;2023-03-21T15:53:26;11.37;;;6.77;;
41661;SDS011;27351;45.992;12.666;2023-03-21T15:55:57;12.43;;;6.83;;
41661;SDS011;27351;45.992;12.666;2023-03-21T15:58:30;13.30;;;7.00;;
41661;SDS011;27351;45.992;12.666;2023-03-21T16:01:00;10.02;;;6.70;;
41661;SDS011;27351;45.992;12.666;2023-03-21T16:03:31;12.85;;;6.93;;
41661;SDS011;27351;45.992;12.666;2023-03-21T16:06:03;11.10;;;6.40;;
41661;SDS011;27351;45.992;12.666;2023-03-21T16:08:31;13.23;;;7.20;;
41661;SDS011;27351;45.992;12.666;2023-03-21T16:13:39;10.57;;;6.88;;
41661;SDS011;27351;45.992;12.666;2023-03-21T16:16:05;11.95;;;7.20;;
41661;SDS011;27351;45.992;12.666;2023-03-21T16:18:30;11.43;;;7.10;;
41661;SDS011;27351;45.992;12.666;2023-03-21T16:20:56;11.13;;;6.77;;
41661;SDS011;27351;45.992;12.666;2023-03-21T16:23:23;10.43;;;6.70;;
41661;SDS011;27351;45.992;12.666;2023-03-21T16:25:49;12.32;;;7.53;;
41661;SDS011;27351;45.992;12.666;2023-03-21T16:28:21;12.35;;;8.35;;
41661;SDS011;27351;45.992;12.666;2023-03-21T16:30:47;15.00;;;9.60;;
41661;SDS011;27351;45.992;12.666;2023-03-21T16:33:12;13.70;;;9.23;;
41661;SDS011;27351;45.992;12.666;2023-03-21T16:35:38;13.23;;;9.00;;
41661;SDS011;27351;45.992;12.666;2023-03-21T16:38:04;14.63;;;9.03;;
41661;SDS011;27351;45.992;12.666;2023-03-21T16:40:30;14.67;;;8.90;;
41661;SDS011;27351;45.992;12.666;2023-03-21T16:42:56;13.93;;;9.77;;
41661;SDS011;27351;45.992;12.666;2023-03-21T16:45:22;16.83;;;9.90;;
41661;SDS011;27351;45.992;12.666;2023-03-21T16:47:48;14.50;;;10.33;;
41661;SDS011;27351;45.992;12.666;2023-03-21T16:52:42;16.77;;;10.07;;